createdAt,value
2019-03-05T00:00:19.255Z,987.50
2019-03-05T00:01:19.233Z,987.49
2019-03-05T00:02:19.235Z,987.50
2019-03-05T00:03:19.218Z,987.51
2019-03-05T00:04:19.502Z,987.50
2019-03-05T00:05:19.581Z,987.37
2019-03-05T00:06:19.178Z,987.46
2019-03-05T00:07:19.201Z,987.53
2019-03-05T00:08:19.156Z,987.53
2019-03-05T00:09:19.151Z,987.45
2019-03-05T00:10:19.140Z,987.43
2019-03-05T00:11:19.473Z,987.47
2019-03-05T00:12:19.123Z,987.43
2019-03-05T00:13:19.143Z,987.54
2019-03-05T00:14:19.096Z,987.52
2019-03-05T00:15:19.082Z,987.47
2019-03-05T00:16:19.070Z,987.50
2019-03-05T00:17:19.126Z,987.45
2019-03-05T00:18:19.340Z,987.44
2019-03-05T00:19:19.039Z,987.52
2019-03-05T00:20:19.047Z,987.53
2019-03-05T00:21:19.042Z,987.50
2019-03-05T00:22:19.009Z,987.44
2019-03-05T00:23:19.063Z,987.44
2019-03-05T00:24:18.998Z,987.40
2019-03-05T00:25:19.285Z,987.45
2019-03-05T00:26:18.966Z,987.41
2019-03-05T00:27:18.970Z,987.47
2019-03-05T00:28:18.947Z,987.50
2019-03-05T00:29:18.987Z,987.41
2019-03-05T00:30:18.923Z,987.41
2019-03-05T00:31:18.920Z,987.34
2019-03-05T00:32:19.185Z,987.54
2019-03-05T00:33:18.891Z,987.33
2019-03-05T00:34:18.884Z,987.42
2019-03-05T00:35:18.953Z,987.40
2019-03-05T00:36:18.859Z,987.38
2019-03-05T00:37:18.860Z,987.44
2019-03-05T00:38:18.840Z,987.33
2019-03-05T00:39:19.126Z,987.44
2019-03-05T00:40:18.818Z,987.38
2019-03-05T00:41:18.853Z,987.38
2019-03-05T00:42:18.803Z,987.38
2019-03-05T00:43:18.795Z,987.44
2019-03-05T00:44:18.775Z,987.44
2019-03-05T00:45:18.773Z,987.46
2019-03-05T00:46:19.043Z,987.38
2019-03-05T00:47:18.820Z,987.43
2019-03-05T00:48:18.735Z,987.39
2019-03-05T00:49:18.722Z,987.49
2019-03-05T00:50:18.716Z,987.38
2019-03-05T00:51:25.006Z,987.40
2019-03-05T00:52:19.768Z,987.36
2019-03-05T00:53:18.992Z,987.31
2019-03-05T00:54:18.671Z,987.29
2019-03-05T00:55:18.661Z,987.38
2019-03-05T00:56:18.648Z,987.43
2019-03-05T00:57:18.642Z,987.44
2019-03-05T00:58:18.678Z,987.28
2019-03-05T00:59:18.616Z,987.44
2019-03-05T01:00:18.907Z,987.39
2019-03-05T01:01:18.595Z,987.36
2019-03-05T01:02:18.586Z,987.31
2019-03-05T01:03:18.582Z,987.46
2019-03-05T01:04:18.615Z,987.49
2019-03-05T01:05:18.553Z,987.54
2019-03-05T01:06:18.547Z,987.47
2019-03-05T01:07:18.830Z,987.50
2019-03-05T01:08:19.700Z,987.56
2019-03-05T01:09:18.517Z,987.37
2019-03-05T01:10:18.590Z,987.26
2019-03-05T01:11:18.494Z,987.52
2019-03-05T01:12:18.479Z,987.67
2019-03-05T01:13:18.479Z,987.61
2019-03-05T01:14:18.751Z,987.62
2019-03-05T01:15:18.447Z,987.68
2019-03-05T01:16:18.494Z,987.58
2019-03-05T01:17:18.426Z,987.66
2019-03-05T01:18:18.416Z,987.53
2019-03-05T01:19:18.403Z,987.67
2019-03-05T01:20:18.436Z,987.66
2019-03-05T01:21:18.669Z,987.74
2019-03-05T01:22:18.422Z,987.66
2019-03-05T01:23:18.361Z,987.68
2019-03-05T01:24:18.359Z,987.64
2019-03-05T01:25:18.355Z,987.68
2019-03-05T01:26:18.356Z,987.50
2019-03-05T01:27:18.320Z,987.58
2019-03-05T01:28:18.716Z,987.48
2019-03-05T01:29:18.297Z,987.51
2019-03-05T01:30:18.288Z,987.59
2019-03-05T01:31:18.287Z,987.52
2019-03-05T01:32:18.267Z,987.59
2019-03-05T01:33:18.257Z,987.64
2019-03-05T01:34:18.301Z,987.79
2019-03-05T01:35:18.527Z,987.72
2019-03-05T01:36:18.233Z,987.86
2019-03-05T01:37:18.216Z,987.88
2019-03-05T01:38:18.208Z,987.92
2019-03-05T01:39:18.191Z,987.82
2019-03-05T01:40:18.229Z,987.86
2019-03-05T01:41:18.170Z,987.85
2019-03-05T01:42:18.443Z,988.02
2019-03-05T01:43:18.151Z,987.87
2019-03-05T01:44:18.140Z,987.88
2019-03-05T01:45:18.142Z,988.09
2019-03-05T01:46:18.177Z,988.00
2019-03-05T01:47:18.110Z,987.97
2019-03-05T01:48:18.096Z,987.89
2019-03-05T01:49:18.370Z,988.02
2019-03-05T01:50:18.083Z,987.85
2019-03-05T01:51:18.065Z,987.91
2019-03-05T01:52:18.108Z,987.79
2019-03-05T01:53:18.044Z,988.09
2019-03-05T01:54:18.032Z,988.07
2019-03-05T01:55:18.026Z,987.92
2019-03-05T01:56:18.299Z,988.12
2019-03-05T01:57:18.004Z,988.16
2019-03-05T01:58:18.046Z,988.15
2019-03-05T01:59:17.984Z,988.15
2019-03-05T02:00:17.970Z,988.12
2019-03-05T02:01:17.959Z,988.21
2019-03-05T02:02:17.954Z,988.10
2019-03-05T02:03:18.252Z,988.24
2019-03-05T02:04:18.014Z,988.22
2019-03-05T02:05:17.919Z,988.18
2019-03-05T02:06:17.909Z,988.09
2019-03-05T02:07:17.900Z,988.24
2019-03-05T02:08:17.883Z,988.25
2019-03-05T02:09:17.874Z,988.25
2019-03-05T02:10:18.209Z,988.24
2019-03-05T02:11:17.856Z,988.33
2019-03-05T02:12:17.841Z,988.20
2019-03-05T02:13:17.840Z,988.29
2019-03-05T02:14:17.829Z,988.27
2019-03-05T02:15:17.813Z,988.40
2019-03-05T02:16:17.868Z,988.27
2019-03-05T02:17:18.090Z,988.31
2019-03-05T02:18:17.777Z,988.27
2019-03-05T02:19:17.785Z,988.39
2019-03-05T02:20:17.757Z,988.40
2019-03-05T02:21:17.771Z,988.39
2019-03-05T02:22:17.839Z,988.14
2019-03-05T02:23:17.727Z,988.42
2019-03-05T02:24:17.717Z,988.47
2019-03-05T02:25:17.716Z,988.39
2019-03-05T02:26:17.696Z,988.27
2019-03-05T02:27:17.694Z,988.42
2019-03-05T02:28:17.717Z,988.38
2019-03-05T02:29:17.667Z,988.34
2019-03-05T02:30:17.934Z,988.34
2019-03-05T02:31:17.658Z,988.28
2019-03-05T02:32:17.628Z,988.46
2019-03-05T02:33:17.626Z,988.44
2019-03-05T02:34:17.731Z,988.41
2019-03-05T02:35:17.597Z,988.46
2019-03-05T02:36:17.648Z,988.39
2019-03-05T02:37:17.583Z,988.37
2019-03-05T02:38:17.573Z,988.44
2019-03-05T02:39:17.563Z,988.44
2019-03-05T02:40:17.628Z,988.47
2019-03-05T02:41:17.534Z,988.39
2019-03-05T02:42:17.848Z,988.42
2019-03-05T02:43:17.520Z,988.50
2019-03-05T02:44:17.502Z,988.48
2019-03-05T02:45:17.490Z,988.48
2019-03-05T02:46:17.540Z,988.54
2019-03-05T02:47:17.479Z,988.43
2019-03-05T02:48:17.459Z,988.47
2019-03-05T02:49:17.461Z,988.47
2019-03-05T02:50:17.436Z,988.58
2019-03-05T02:51:17.434Z,988.50
2019-03-05T02:52:17.518Z,988.56
2019-03-05T02:53:17.407Z,988.50
2019-03-05T02:54:17.403Z,988.53
2019-03-05T02:55:17.393Z,988.46
2019-03-05T02:56:17.389Z,988.50
2019-03-05T02:57:17.362Z,988.49
2019-03-05T02:58:17.418Z,988.54
2019-03-05T02:59:17.341Z,988.49
2019-03-05T03:01:39.461Z,988.44
2019-03-05T03:02:39.135Z,988.50
2019-03-05T03:03:39.121Z,988.57
2019-03-05T03:04:39.128Z,988.53
2019-03-05T03:05:39.109Z,988.53
2019-03-05T03:06:39.091Z,988.52
2019-03-05T03:07:39.422Z,988.48
2019-03-05T03:08:39.068Z,988.55
2019-03-05T03:09:39.056Z,988.44
2019-03-05T03:10:39.045Z,988.58
2019-03-05T03:11:39.737Z,988.50
2019-03-05T03:12:39.026Z,988.58
2019-03-05T03:13:39.048Z,988.57
2019-03-05T03:14:39.304Z,988.54
2019-03-05T03:15:38.999Z,988.59
2019-03-05T03:16:38.999Z,988.64
2019-03-05T03:17:38.982Z,988.69
2019-03-05T03:18:38.960Z,988.63
2019-03-05T03:19:39.149Z,988.63
2019-03-05T03:20:38.959Z,988.65
2019-03-05T03:21:38.932Z,988.61
2019-03-05T03:22:38.923Z,988.53
2019-03-05T03:23:38.906Z,988.62
2019-03-05T03:24:39.714Z,988.59
2019-03-05T03:25:38.925Z,988.68
2019-03-05T03:26:38.874Z,988.59
2019-03-05T03:27:39.170Z,988.54
2019-03-05T03:28:38.856Z,988.65
2019-03-05T03:29:38.850Z,988.61
2019-03-05T03:30:38.874Z,988.69
2019-03-05T03:31:39.715Z,988.55
2019-03-05T03:32:38.818Z,988.60
2019-03-05T03:33:38.814Z,988.57
2019-03-05T03:34:39.149Z,988.62
2019-03-05T03:35:38.785Z,988.68
2019-03-05T03:36:38.774Z,988.59
2019-03-05T03:37:39.069Z,988.61
2019-03-05T03:38:38.758Z,988.64
2019-03-05T03:39:38.740Z,988.61
2019-03-05T03:40:38.726Z,988.60
2019-03-05T03:41:39.024Z,988.64
2019-03-05T03:42:38.707Z,988.60
2019-03-05T03:43:38.809Z,988.58
2019-03-05T03:44:38.691Z,988.59
2019-03-05T03:45:38.673Z,988.68
2019-03-05T03:46:38.667Z,988.69
2019-03-05T03:47:38.650Z,988.59
2019-03-05T03:48:38.958Z,988.71
2019-03-05T03:49:38.665Z,988.68
2019-03-05T03:50:38.626Z,988.70
2019-03-05T03:51:38.650Z,988.70
2019-03-05T03:52:38.596Z,988.69
2019-03-05T03:53:38.596Z,988.76
2019-03-05T03:54:38.577Z,988.68
2019-03-05T03:55:39.057Z,988.70
2019-03-05T03:56:38.556Z,988.70
2019-03-05T03:57:38.550Z,988.69
2019-03-05T03:58:38.533Z,988.80
2019-03-05T03:59:38.523Z,988.74
2019-03-05T04:00:38.514Z,988.75
2019-03-05T04:01:38.835Z,988.78
2019-03-05T04:02:38.492Z,988.70
2019-03-05T04:03:38.481Z,988.82
2019-03-05T04:04:38.469Z,988.79
2019-03-05T04:05:38.461Z,988.83
2019-03-05T04:06:38.464Z,988.84
2019-03-05T04:07:38.507Z,988.92
2019-03-05T04:08:38.447Z,988.88
2019-03-05T04:09:38.446Z,988.82
2019-03-05T04:10:38.481Z,988.81
2019-03-05T04:11:38.398Z,988.88
2019-03-05T04:12:38.390Z,988.89
2019-03-05T04:13:38.742Z,988.91
2019-03-05T04:14:38.404Z,988.89
2019-03-05T04:15:38.350Z,988.99
2019-03-05T04:16:38.366Z,988.91
2019-03-05T04:17:38.331Z,988.90
2019-03-05T04:18:38.325Z,988.96
2019-03-05T04:19:38.364Z,989.10
2019-03-05T04:20:38.304Z,989.15
2019-03-05T04:21:38.291Z,989.13
2019-03-05T04:22:38.276Z,989.18
2019-03-05T04:23:38.282Z,989.22
2019-03-05T04:24:38.260Z,989.26
2019-03-05T04:25:38.567Z,989.30
2019-03-05T04:26:38.233Z,989.33
2019-03-05T04:27:38.231Z,989.27
2019-03-05T04:28:38.212Z,989.27
2019-03-05T04:29:38.206Z,989.33
2019-03-05T04:30:38.191Z,989.33
2019-03-05T04:31:38.534Z,989.37
2019-03-05T04:32:38.216Z,989.27
2019-03-05T04:33:38.160Z,989.43
2019-03-05T04:34:38.148Z,989.27
2019-03-05T04:35:38.149Z,989.43
2019-03-05T04:36:38.128Z,989.38
2019-03-05T04:37:38.154Z,989.47
2019-03-05T04:38:38.391Z,989.54
2019-03-05T04:39:38.095Z,989.52
2019-03-05T04:40:38.083Z,989.56
2019-03-05T04:41:38.074Z,989.55
2019-03-05T04:42:38.064Z,989.53
2019-03-05T04:43:38.092Z,989.55
2019-03-05T04:44:38.042Z,989.57
2019-03-05T04:45:38.322Z,989.59
2019-03-05T04:46:38.019Z,989.66
2019-03-05T04:47:38.035Z,989.64
2019-03-05T04:48:37.999Z,989.62
2019-03-05T04:49:38.301Z,989.60
2019-03-05T04:50:37.980Z,989.65
2019-03-05T04:51:37.967Z,989.72
2019-03-05T04:52:39.355Z,989.70
2019-03-05T04:53:37.967Z,989.74
2019-03-05T04:54:37.958Z,989.82
2019-03-05T04:55:37.972Z,989.69
2019-03-05T04:56:37.915Z,989.69
2019-03-05T04:57:37.906Z,989.71
2019-03-05T04:58:37.916Z,989.70
2019-03-05T04:59:38.183Z,989.77
2019-03-05T05:00:37.906Z,989.77
2019-03-05T05:01:37.902Z,989.75
2019-03-05T05:02:37.853Z,989.81
2019-03-05T05:03:37.843Z,989.76
2019-03-05T05:04:37.849Z,989.68
2019-03-05T05:05:37.826Z,989.81
2019-03-05T05:06:38.238Z,989.78
2019-03-05T05:07:37.866Z,989.78
2019-03-05T05:08:37.818Z,989.74
2019-03-05T05:09:38.105Z,989.82
2019-03-05T05:10:37.772Z,989.79
2019-03-05T05:11:37.780Z,989.69
2019-03-05T05:12:37.754Z,989.80
2019-03-05T05:13:38.065Z,989.79
2019-03-05T05:14:37.731Z,989.73
2019-03-05T05:15:37.717Z,989.76
2019-03-05T05:16:37.713Z,989.78
2019-03-05T05:17:37.699Z,989.76
2019-03-05T05:18:37.697Z,989.76
2019-03-05T05:19:37.740Z,989.85
2019-03-05T05:20:37.964Z,989.71
2019-03-05T05:21:37.656Z,989.81
2019-03-05T05:22:37.657Z,989.77
2019-03-05T05:23:37.655Z,989.77
2019-03-05T05:24:37.762Z,989.82
2019-03-05T05:25:37.660Z,989.84
2019-03-05T05:26:37.602Z,989.80
2019-03-05T05:27:37.881Z,989.75
2019-03-05T05:28:37.582Z,989.84
2019-03-05T05:29:37.569Z,989.72
2019-03-05T05:30:37.562Z,989.80
2019-03-05T05:31:37.586Z,989.74
2019-03-05T05:32:37.551Z,989.79
2019-03-05T05:33:37.526Z,989.79
2019-03-05T05:34:37.830Z,989.77
2019-03-05T05:35:37.524Z,989.80
2019-03-05T05:36:37.507Z,989.80
2019-03-05T05:37:37.537Z,989.74
2019-03-05T05:38:37.476Z,989.76
2019-03-05T05:39:37.463Z,989.76
2019-03-05T05:40:37.453Z,989.65
2019-03-05T05:41:37.750Z,989.70
2019-03-05T05:42:37.432Z,989.63
2019-03-05T05:43:37.514Z,989.73
2019-03-05T05:44:37.429Z,989.79
2019-03-05T05:45:37.406Z,989.78
2019-03-05T05:46:37.423Z,989.82
2019-03-05T05:47:37.382Z,989.82
2019-03-05T05:48:37.660Z,989.91
2019-03-05T05:49:37.402Z,989.92
2019-03-05T05:50:37.348Z,989.86
2019-03-05T05:51:37.337Z,989.87
2019-03-05T05:52:37.327Z,989.92
2019-03-05T05:53:37.321Z,989.89
2019-03-05T05:54:37.305Z,989.79
2019-03-05T05:55:37.617Z,989.83
2019-03-05T05:56:37.284Z,989.82
2019-03-05T05:57:37.274Z,989.92
2019-03-05T05:58:37.268Z,989.86
2019-03-05T05:59:37.257Z,989.85
2019-03-05T06:00:37.242Z,989.90
2019-03-05T06:01:37.564Z,989.85
2019-03-05T06:02:37.224Z,989.85
2019-03-05T06:03:37.996Z,989.93
2019-03-05T06:04:37.208Z,989.87
2019-03-05T06:05:37.193Z,989.84
2019-03-05T06:06:37.216Z,989.85
2019-03-05T06:07:37.228Z,989.93
2019-03-05T06:08:37.160Z,989.93
2019-03-05T06:09:37.147Z,989.98
2019-03-05T06:10:37.149Z,989.97
2019-03-05T06:11:37.139Z,989.99
2019-03-05T06:12:37.118Z,989.96
2019-03-05T06:13:37.430Z,989.87
2019-03-05T06:14:37.097Z,990.02
2019-03-05T06:15:37.088Z,990.02
2019-03-05T06:16:37.079Z,990.02
2019-03-05T06:17:37.066Z,990.01
2019-03-05T06:18:37.065Z,990.04
2019-03-05T06:19:37.436Z,990.04
2019-03-05T06:20:37.036Z,990.01
2019-03-05T06:21:37.709Z,990.13
2019-03-05T06:22:37.021Z,990.01
2019-03-05T06:23:37.001Z,990.02
2019-03-05T06:24:37.008Z,989.96
2019-03-05T06:25:37.024Z,990.03
2019-03-05T06:26:37.372Z,990.02
2019-03-05T06:27:36.962Z,990.07
2019-03-05T06:28:36.960Z,990.07
2019-03-05T06:29:36.988Z,990.08
2019-03-05T06:30:36.948Z,990.10
2019-03-05T06:31:36.975Z,990.05
2019-03-05T06:32:36.920Z,990.17
2019-03-05T06:33:37.188Z,990.21
2019-03-05T06:34:36.894Z,990.08
2019-03-05T06:35:36.877Z,990.13
2019-03-05T06:36:36.864Z,990.15
2019-03-05T06:37:36.904Z,990.22
2019-03-05T06:38:36.858Z,990.16
2019-03-05T06:39:36.834Z,990.26
2019-03-05T06:40:37.306Z,990.19
2019-03-05T06:41:36.845Z,990.27
2019-03-05T06:42:36.803Z,990.30
2019-03-05T06:43:36.867Z,990.29
2019-03-05T06:44:36.784Z,990.30
2019-03-05T06:45:36.917Z,990.23
2019-03-05T06:46:36.761Z,990.24
2019-03-05T06:47:37.127Z,990.33
2019-03-05T06:48:36.824Z,990.28
2019-03-05T06:49:36.785Z,990.33
2019-03-05T06:50:36.719Z,990.30
2019-03-05T06:51:36.706Z,990.36
2019-03-05T06:52:36.693Z,990.20
2019-03-05T06:53:36.690Z,990.24
2019-03-05T06:54:36.998Z,990.30
2019-03-05T06:55:36.898Z,990.30
2019-03-05T06:56:36.657Z,990.22
2019-03-05T06:57:36.658Z,990.31
2019-03-05T06:58:36.641Z,990.36
2019-03-05T06:59:36.623Z,990.35
2019-03-05T07:00:36.616Z,990.22
2019-03-05T07:01:36.714Z,990.23
2019-03-05T07:02:36.594Z,990.30
2019-03-05T07:03:36.587Z,990.38
2019-03-05T07:04:36.582Z,990.41
2019-03-05T07:05:36.568Z,990.43
2019-03-05T07:06:36.597Z,990.42
2019-03-05T07:07:37.250Z,990.40
2019-03-05T07:08:36.562Z,990.41
2019-03-05T07:09:36.556Z,990.37
2019-03-05T07:10:36.525Z,990.39
2019-03-05T07:11:36.496Z,990.34
2019-03-05T07:12:36.530Z,990.36
2019-03-05T07:13:36.537Z,990.40
2019-03-05T07:14:36.754Z,990.37
2019-03-05T07:15:36.459Z,990.42
2019-03-05T07:16:36.438Z,990.43
2019-03-05T07:17:36.510Z,990.34
2019-03-05T07:18:36.426Z,990.44
2019-03-05T07:19:36.483Z,990.37
2019-03-05T07:20:36.402Z,990.33
2019-03-05T07:21:37.658Z,990.42
2019-03-05T07:22:36.391Z,990.47
2019-03-05T07:23:36.372Z,990.43
2019-03-05T07:24:36.365Z,990.46
2019-03-05T07:25:36.449Z,990.48
2019-03-05T07:26:36.337Z,990.46
2019-03-05T07:27:36.331Z,990.51
2019-03-05T07:28:36.626Z,990.35
2019-03-05T07:29:36.328Z,990.37
2019-03-05T07:30:36.295Z,990.43
2019-03-05T07:31:36.357Z,990.43
2019-03-05T07:32:36.268Z,990.44
2019-03-05T07:33:36.273Z,990.45
2019-03-05T07:34:36.249Z,990.55
2019-03-05T07:35:36.647Z,990.48
2019-03-05T07:36:36.250Z,990.44
2019-03-05T07:37:36.268Z,990.46
2019-03-05T07:38:36.221Z,990.47
2019-03-05T07:39:36.208Z,990.47
2019-03-05T07:40:36.185Z,990.43
2019-03-05T07:41:36.261Z,990.42
2019-03-05T07:42:36.455Z,990.49
2019-03-05T07:43:36.897Z,990.42
2019-03-05T07:44:36.145Z,990.34
2019-03-05T07:45:36.244Z,990.40
2019-03-05T07:46:36.123Z,990.41
2019-03-05T07:47:36.137Z,990.50
2019-03-05T07:48:36.111Z,990.41
2019-03-05T07:49:43.660Z,990.45
2019-03-05T07:50:37.744Z,990.59
2019-03-05T07:51:36.095Z,990.54
2019-03-05T07:52:36.063Z,990.64
2019-03-05T07:53:36.045Z,990.63
2019-03-05T07:54:36.051Z,990.61
2019-03-05T07:55:36.065Z,990.57
2019-03-05T07:56:42.146Z,990.59
2019-03-05T07:57:36.004Z,990.63
2019-03-05T07:58:35.998Z,990.64
2019-03-05T07:59:36.739Z,990.65
2019-03-05T08:00:35.980Z,990.68
2019-03-05T08:01:36.014Z,990.61
2019-03-05T08:02:35.965Z,990.84
2019-03-05T08:03:36.410Z,990.92
2019-03-05T08:04:35.954Z,990.87
2019-03-05T08:05:35.959Z,990.85
2019-03-05T08:06:35.907Z,990.72
2019-03-05T08:07:36.794Z,990.88
2019-03-05T08:08:35.956Z,990.92
2019-03-05T08:09:35.880Z,990.98
2019-03-05T08:10:35.883Z,990.96
2019-03-05T08:11:35.873Z,991.02
2019-03-05T08:12:35.902Z,990.93
2019-03-05T08:13:35.877Z,990.88
2019-03-05T08:14:35.821Z,990.93
2019-03-05T08:15:35.815Z,990.92
2019-03-05T08:16:36.270Z,990.91
2019-03-05T08:17:35.846Z,990.98
2019-03-05T08:18:35.783Z,990.97
2019-03-05T08:19:35.819Z,990.99
2019-03-05T08:20:35.782Z,990.99
2019-03-05T08:21:35.754Z,990.98
2019-03-05T08:22:35.739Z,991.07
2019-03-05T08:23:36.020Z,991.09
2019-03-05T08:24:35.731Z,991.13
2019-03-05T08:25:35.772Z,991.12
2019-03-05T08:26:36.649Z,991.17
2019-03-05T08:27:35.706Z,991.17
2019-03-05T08:28:35.685Z,991.12
2019-03-05T08:29:35.680Z,991.14
2019-03-05T08:30:35.988Z,991.19
2019-03-05T08:31:35.685Z,991.14
2019-03-05T08:32:35.633Z,991.17
2019-03-05T08:33:35.649Z,991.23
2019-03-05T08:34:35.626Z,991.22
2019-03-05T08:35:35.649Z,991.16
2019-03-05T08:36:35.591Z,991.20
2019-03-05T08:37:35.909Z,991.26
2019-03-05T08:38:35.579Z,991.24
2019-03-05T08:39:35.594Z,991.23
2019-03-05T08:40:35.548Z,991.27
2019-03-05T08:41:35.539Z,991.33
2019-03-05T08:42:35.600Z,991.29
2019-03-05T08:43:35.613Z,991.34
2019-03-05T08:44:36.503Z,991.36
2019-03-05T08:45:35.587Z,991.36
2019-03-05T08:46:35.523Z,991.40
2019-03-05T08:47:35.475Z,991.39
2019-03-05T08:48:35.469Z,991.37
2019-03-05T08:49:35.508Z,991.44
2019-03-05T08:50:35.453Z,991.47
2019-03-05T08:51:35.782Z,991.43
2019-03-05T08:52:35.425Z,991.46
2019-03-05T08:53:35.410Z,991.54
2019-03-05T08:54:35.450Z,991.57
2019-03-05T08:55:36.232Z,991.59
2019-03-05T08:56:35.377Z,991.55
2019-03-05T08:57:35.371Z,991.52
2019-03-05T08:58:35.748Z,991.62
2019-03-05T08:59:35.395Z,991.60
2019-03-05T09:00:35.372Z,991.55
2019-03-05T09:01:36.573Z,991.61
2019-03-05T09:02:35.375Z,991.58
2019-03-05T09:03:35.389Z,991.61
2019-03-05T09:04:35.333Z,991.61
2019-03-05T09:05:36.870Z,991.58
2019-03-05T09:06:35.277Z,991.55
2019-03-05T09:07:35.302Z,991.56
2019-03-05T09:08:35.446Z,991.58
2019-03-05T09:09:35.523Z,991.62
2019-03-05T09:10:35.247Z,991.62
2019-03-05T09:11:35.927Z,991.66
2019-03-05T09:12:35.210Z,991.64
2019-03-05T09:13:35.245Z,991.65
2019-03-05T09:14:35.274Z,991.67
2019-03-05T09:15:35.217Z,991.69
2019-03-05T09:16:35.169Z,991.69
2019-03-05T09:17:35.157Z,991.72
2019-03-05T09:18:36.540Z,991.71
2019-03-05T09:19:36.011Z,991.70
2019-03-05T09:20:35.124Z,991.67
2019-03-05T09:21:35.191Z,991.69
2019-03-05T09:22:35.100Z,991.66
2019-03-05T09:23:35.158Z,991.77
2019-03-05T09:24:36.591Z,991.72
2019-03-05T09:25:35.658Z,991.82
2019-03-05T09:26:35.109Z,991.81
2019-03-05T09:27:35.359Z,991.74
2019-03-05T09:28:35.036Z,991.78
2019-03-05T09:29:35.766Z,991.78
2019-03-05T09:30:35.020Z,991.70
2019-03-05T09:31:35.324Z,991.77
2019-03-05T09:32:35.768Z,991.74
2019-03-05T09:33:35.686Z,991.75
2019-03-05T09:34:35.683Z,991.66
2019-03-05T09:35:34.970Z,991.73
2019-03-05T09:36:34.984Z,991.70
2019-03-05T09:37:35.023Z,991.75
2019-03-05T09:38:35.681Z,991.71
2019-03-05T09:39:34.929Z,991.79
2019-03-05T09:40:34.909Z,991.74
2019-03-05T09:41:34.936Z,991.72
2019-03-05T09:42:39.777Z,991.82
2019-03-05T09:43:34.950Z,991.73
2019-03-05T09:44:34.926Z,991.77
2019-03-05T09:45:36.407Z,991.79
2019-03-05T09:46:34.936Z,991.89
2019-03-05T09:47:35.099Z,991.84
2019-03-05T09:48:34.830Z,991.81
2019-03-05T09:49:35.278Z,991.74
2019-03-05T09:50:34.811Z,991.81
2019-03-05T09:51:34.796Z,991.80
2019-03-05T09:52:34.927Z,991.76
2019-03-05T09:53:34.862Z,991.76
2019-03-05T09:54:35.397Z,991.79
2019-03-05T09:55:35.824Z,991.93
2019-03-05T09:56:35.269Z,991.90
2019-03-05T09:57:34.853Z,992.00
2019-03-05T09:58:34.751Z,991.91
2019-03-05T09:59:34.710Z,992.00
2019-03-05T10:00:34.701Z,991.94
2019-03-05T10:01:34.737Z,991.98
2019-03-05T10:02:34.819Z,992.05
2019-03-05T10:03:35.020Z,991.96
2019-03-05T10:04:34.727Z,992.07
2019-03-05T10:05:34.643Z,992.09
2019-03-05T10:06:34.633Z,992.04
2019-03-05T10:07:34.703Z,992.03
2019-03-05T10:08:34.633Z,992.09
2019-03-05T10:09:34.689Z,992.15
2019-03-05T10:10:35.112Z,992.12
2019-03-05T10:11:34.600Z,992.01
2019-03-05T10:12:34.592Z,992.11
2019-03-05T10:13:34.675Z,992.10
2019-03-05T10:14:34.604Z,991.93
2019-03-05T10:15:34.537Z,992.17
2019-03-05T10:16:34.529Z,992.10
2019-03-05T10:17:38.198Z,992.05
2019-03-05T10:18:34.653Z,992.02
2019-03-05T10:19:35.675Z,992.03
2019-03-05T10:20:34.506Z,991.94
2019-03-05T10:21:45.540Z,992.00
2019-03-05T10:22:35.469Z,992.01
2019-03-05T10:23:34.468Z,992.02
2019-03-05T10:24:34.810Z,991.94
2019-03-05T10:25:34.641Z,992.07
2019-03-05T10:26:34.483Z,992.07
2019-03-05T10:27:34.454Z,992.08
2019-03-05T10:28:34.454Z,992.05
2019-03-05T10:29:34.393Z,992.02
2019-03-05T10:30:34.405Z,992.12
2019-03-05T10:31:34.646Z,992.14
2019-03-05T10:32:34.431Z,992.23
2019-03-05T10:33:34.350Z,992.23
2019-03-05T10:34:34.369Z,992.25
2019-03-05T10:35:34.373Z,992.22
2019-03-05T10:36:34.317Z,992.24
2019-03-05T10:37:34.757Z,992.13
2019-03-05T10:38:34.299Z,992.22
2019-03-05T10:39:34.331Z,992.25
2019-03-05T10:40:34.324Z,992.23
2019-03-05T10:41:34.285Z,992.26
2019-03-05T10:42:34.280Z,992.32
2019-03-05T10:43:34.298Z,992.39
2019-03-05T10:44:34.606Z,992.41
2019-03-05T10:45:34.235Z,992.43
2019-03-05T10:46:34.258Z,992.42
2019-03-05T10:47:34.207Z,992.43
2019-03-05T10:48:34.185Z,992.46
2019-03-05T10:49:34.344Z,992.46
2019-03-05T10:50:34.259Z,992.43
2019-03-05T10:51:35.490Z,992.51
2019-03-05T10:52:34.372Z,992.47
2019-03-05T10:53:34.301Z,992.48
2019-03-05T10:54:34.472Z,992.49
2019-03-05T10:55:36.006Z,992.45
2019-03-05T10:56:34.733Z,992.45
2019-03-05T10:57:34.684Z,992.41
2019-03-05T10:58:34.528Z,992.48
2019-03-05T10:59:34.082Z,992.46
2019-03-05T11:00:34.799Z,992.46
2019-03-05T11:01:34.133Z,992.53
2019-03-05T11:02:34.674Z,992.47
2019-03-05T11:03:34.030Z,992.55
2019-03-05T11:04:45.241Z,992.52
2019-03-05T11:05:35.958Z,992.52
2019-03-05T11:06:34.075Z,992.52
2019-03-05T11:07:34.382Z,992.51
2019-03-05T11:08:35.107Z,992.57
2019-03-05T11:09:34.307Z,992.58
2019-03-05T11:10:34.466Z,992.55
2019-03-05T11:11:33.948Z,992.55
2019-03-05T11:12:34.214Z,992.60
2019-03-05T11:13:34.082Z,992.61
2019-03-05T11:14:33.919Z,992.65
2019-03-05T11:15:34.111Z,992.59
2019-03-05T11:16:34.502Z,992.56
2019-03-05T11:17:33.983Z,992.56
2019-03-05T11:18:34.023Z,992.62
2019-03-05T11:19:35.133Z,992.60
2019-03-05T11:20:33.951Z,992.68
2019-03-05T11:21:33.910Z,992.68
2019-03-05T11:22:34.625Z,992.68
2019-03-05T11:23:33.818Z,992.68
2019-03-05T11:24:33.807Z,992.70
2019-03-05T11:25:33.923Z,992.75
2019-03-05T11:26:33.791Z,992.70
2019-03-05T11:27:33.807Z,992.80
2019-03-05T11:28:33.772Z,992.73
2019-03-05T11:29:33.758Z,992.71
2019-03-05T11:30:36.386Z,992.76
2019-03-05T11:31:34.304Z,992.76
2019-03-05T11:32:33.762Z,992.75
2019-03-05T11:33:33.791Z,992.76
2019-03-05T11:34:34.160Z,992.74
2019-03-05T11:35:33.719Z,992.70
2019-03-05T11:36:33.795Z,992.77
2019-03-05T11:37:33.917Z,992.90
2019-03-05T11:38:33.727Z,992.77
2019-03-05T11:39:33.939Z,992.82
2019-03-05T11:40:34.168Z,992.87
2019-03-05T11:41:33.882Z,992.82
2019-03-05T11:42:38.112Z,992.87
2019-03-05T11:43:35.148Z,992.78
2019-03-05T11:44:33.597Z,992.77
2019-03-05T11:45:33.584Z,992.86
2019-03-05T11:46:33.570Z,992.77
2019-03-05T11:47:33.577Z,992.75
2019-03-05T11:48:33.556Z,992.82
2019-03-05T11:49:34.402Z,992.87
2019-03-05T11:50:33.557Z,992.90
2019-03-05T11:51:34.647Z,992.95
2019-03-05T11:52:33.668Z,992.87
2019-03-05T11:53:33.857Z,992.99
2019-03-05T11:54:34.902Z,992.97
2019-03-05T11:55:35.097Z,992.94
2019-03-05T11:56:33.470Z,992.97
2019-03-05T11:57:33.684Z,992.95
2019-03-05T11:58:33.442Z,992.98
2019-03-05T11:59:34.614Z,993.03
2019-03-05T12:00:33.639Z,992.95
2019-03-05T12:01:33.418Z,993.05
2019-03-05T12:02:33.574Z,992.97
2019-03-05T12:03:33.467Z,993.04
2019-03-05T12:04:33.379Z,993.54
2019-03-05T12:05:33.368Z,993.09
2019-03-05T12:06:33.450Z,993.02
2019-03-05T12:07:33.388Z,993.08
2019-03-05T12:08:33.446Z,992.94
2019-03-05T12:09:33.813Z,993.05
2019-03-05T12:10:33.512Z,993.05
2019-03-05T12:11:33.942Z,993.04
2019-03-05T12:12:33.688Z,993.05
2019-03-05T12:13:33.298Z,993.08
2019-03-05T12:14:33.446Z,993.10
2019-03-05T12:15:34.344Z,993.14
2019-03-05T12:16:34.301Z,993.14
2019-03-05T12:17:33.882Z,993.16
2019-03-05T12:18:34.589Z,993.14
2019-03-05T12:19:33.289Z,993.14
2019-03-05T12:20:33.308Z,993.11
2019-03-05T12:21:33.695Z,993.16
2019-03-05T12:22:33.343Z,993.16
2019-03-05T12:23:33.187Z,993.14
2019-03-05T12:24:35.151Z,993.13
2019-03-05T12:25:36.083Z,993.19
2019-03-05T12:26:34.164Z,993.08
2019-03-05T12:27:35.734Z,993.20
2019-03-05T12:28:34.613Z,993.14
2019-03-05T12:29:33.121Z,993.27